createdAt,value
2023-04-08T00:02:23.960Z,15.58
2023-04-08T00:04:52.830Z,15.56
2023-04-08T00:07:21.790Z,15.55
2023-04-08T00:09:53.029Z,15.55
2023-04-08T00:12:21.655Z,15.53
2023-04-08T00:14:50.436Z,15.52
2023-04-08T00:17:19.068Z,15.51
2023-04-08T00:19:47.759Z,15.49
2023-04-08T00:22:16.460Z,15.48
2023-04-08T00:24:45.108Z,15.45
2023-04-08T00:27:14.904Z,15.44
2023-04-08T00:29:43.616Z,15.43
2023-04-08T00:32:12.078Z,15.40
2023-04-08T00:34:40.532Z,15.40
2023-04-08T00:37:08.853Z,15.38
2023-04-08T00:39:38.101Z,15.37
2023-04-08T00:42:07.016Z,15.37
2023-04-08T00:44:37.116Z,15.36
2023-04-08T00:47:05.900Z,15.34
2023-04-08T00:49:34.332Z,15.32
2023-04-08T00:52:02.762Z,15.30
2023-04-08T00:54:32.575Z,15.30
2023-04-08T00:57:01.206Z,15.27
2023-04-08T00:59:32.184Z,15.26
2023-04-08T01:02:14.238Z,15.23
2023-04-08T01:04:52.578Z,15.23
2023-04-08T01:07:27.140Z,15.20
2023-04-08T01:09:59.142Z,15.18
2023-04-08T01:12:31.200Z,15.17
2023-04-08T01:15:06.285Z,15.15
2023-04-08T01:17:38.998Z,15.12
2023-04-08T01:20:10.372Z,15.09
2023-04-08T01:22:54.915Z,15.07
2023-04-08T01:25:28.631Z,15.06
2023-04-08T01:28:00.565Z,15.03
2023-04-08T01:30:31.461Z,15.02
2023-04-08T01:33:03.463Z,14.99
2023-04-08T01:35:33.015Z,14.98
2023-04-08T01:38:02.672Z,14.97
2023-04-08T01:40:31.600Z,14.93
2023-04-08T01:43:03.167Z,14.92
2023-04-08T01:45:32.420Z,14.87
2023-04-08T01:48:02.565Z,14.85
2023-04-08T01:50:33.726Z,14.82
2023-04-08T01:53:04.808Z,14.81
2023-04-08T01:55:35.839Z,14.78
2023-04-08T01:58:08.686Z,14.78
2023-04-08T02:00:40.524Z,14.77
2023-04-08T02:03:10.578Z,14.77
2023-04-08T02:05:39.522Z,14.77
2023-04-08T02:08:08.714Z,14.77
2023-04-08T02:10:36.974Z,14.75
2023-04-08T02:13:09.139Z,14.76
2023-04-08T02:15:43.804Z,14.77
2023-04-08T02:18:18.447Z,14.77
2023-04-08T02:20:51.912Z,14.75
2023-04-08T02:23:24.268Z,14.74
2023-04-08T02:25:55.622Z,14.74
2023-04-08T02:28:31.760Z,14.74
2023-04-08T02:31:02.335Z,14.73
2023-04-08T02:33:31.352Z,14.71
2023-04-08T02:36:00.332Z,14.72
2023-04-08T02:38:30.667Z,14.71
2023-04-08T02:41:00.036Z,14.71
2023-04-08T02:43:32.255Z,14.71
2023-04-08T02:46:03.451Z,14.69
2023-04-08T02:48:33.125Z,14.69
2023-04-08T02:51:01.474Z,14.68
2023-04-08T02:53:30.512Z,14.67
2023-04-08T02:55:58.976Z,14.65
2023-04-08T02:58:27.435Z,14.66
2023-04-08T03:00:57.253Z,14.64
2023-04-08T03:03:29.425Z,14.63
2023-04-08T03:05:59.166Z,14.62
2023-04-08T03:08:27.669Z,14.61
2023-04-08T03:10:56.163Z,14.60
2023-04-08T03:13:24.581Z,14.59
2023-04-08T03:15:52.972Z,14.58
2023-04-08T03:18:23.415Z,14.58
2023-04-08T03:20:52.423Z,14.56
2023-04-08T03:23:20.788Z,14.56
2023-04-08T03:25:49.152Z,14.55
2023-04-08T03:28:17.594Z,14.54
2023-04-08T03:30:46.118Z,14.54
2023-04-08T03:33:14.454Z,14.53
2023-04-08T03:35:44.551Z,14.52
2023-04-08T03:38:12.965Z,14.51
2023-04-08T03:40:41.736Z,14.51
2023-04-08T03:43:11.733Z,14.50
2023-04-08T03:45:40.278Z,14.49
2023-04-08T03:48:10.047Z,14.49
2023-04-08T03:50:38.513Z,14.48
2023-04-08T03:53:11.226Z,14.47
2023-04-08T03:55:39.872Z,14.45
2023-04-08T03:58:08.480Z,14.46
2023-04-08T04:00:37.408Z,14.45
2023-04-08T04:03:06.591Z,14.46
2023-04-08T04:05:35.212Z,14.45
2023-04-08T04:08:03.930Z,14.45
2023-04-08T04:10:33.855Z,14.43
2023-04-08T04:13:02.483Z,14.42
2023-04-08T04:15:31.041Z,14.41
2023-04-08T04:17:59.683Z,14.41
2023-04-08T04:20:30.907Z,14.40
2023-04-08T04:22:59.562Z,14.40
2023-04-08T04:25:28.022Z,14.39
2023-04-08T04:27:58.150Z,14.39
2023-04-08T04:30:27.252Z,14.38
2023-04-08T04:32:56.339Z,14.39
2023-04-08T04:35:25.023Z,14.39
2023-04-08T04:37:53.781Z,14.39
2023-04-08T04:40:22.888Z,14.39
2023-04-08T04:42:51.352Z,14.40
2023-04-08T04:45:21.170Z,14.39
2023-04-08T04:47:49.599Z,14.38
2023-04-08T04:50:18.165Z,14.38
2023-04-08T04:52:46.511Z,14.37
2023-04-08T04:55:15.801Z,14.37
2023-04-08T04:57:44.792Z,14.35
2023-04-08T05:00:14.672Z,14.36
2023-04-08T05:02:45.748Z,14.35
2023-04-08T05:05:14.536Z,14.35
2023-04-08T05:07:43.042Z,14.36
2023-04-08T05:10:12.452Z,14.34
2023-04-08T05:12:41.743Z,14.35
2023-04-08T05:15:11.203Z,14.35
2023-04-08T05:17:39.863Z,14.35
2023-04-08T05:20:11.475Z,14.35
2023-04-08T05:22:39.852Z,14.34
2023-04-08T05:25:09.408Z,14.34
2023-04-08T05:27:38.404Z,14.34
2023-04-08T05:30:08.968Z,14.34
2023-04-08T05:32:37.499Z,14.33
2023-04-08T05:35:07.239Z,14.32
2023-04-08T05:37:37.294Z,14.33
2023-04-08T05:40:07.530Z,14.32
2023-04-08T05:42:36.062Z,14.31
2023-04-08T05:45:05.413Z,14.30
2023-04-08T05:47:34.637Z,14.30
2023-04-08T05:50:03.177Z,14.30
2023-04-08T05:52:31.621Z,14.30
2023-04-08T05:55:01.354Z,14.30
2023-04-08T05:57:29.988Z,14.29
2023-04-08T05:59:58.284Z,14.29
2023-04-08T06:02:26.840Z,14.24
2023-04-08T06:04:55.719Z,14.23
2023-04-08T06:07:24.399Z,14.20
2023-04-08T06:09:53.036Z,14.18
2023-04-08T06:12:22.849Z,14.18
2023-04-08T06:14:56.807Z,14.17
2023-04-08T06:17:25.595Z,14.14
2023-04-08T06:19:54.009Z,14.14
2023-04-08T06:22:22.398Z,14.13
2023-04-08T06:24:50.845Z,14.13
2023-04-08T06:27:19.471Z,14.12
2023-04-08T06:29:49.533Z,14.10
2023-04-08T06:32:18.051Z,14.06
2023-04-08T06:34:46.778Z,14.05
2023-04-08T06:37:15.345Z,14.04
2023-04-08T06:39:44.311Z,14.06
2023-04-08T06:42:12.796Z,14.05
2023-04-08T06:44:58.163Z,14.03
2023-04-08T06:47:26.660Z,14.01
2023-04-08T06:49:55.211Z,14.00
2023-04-08T06:52:23.583Z,13.98
2023-04-08T06:54:51.975Z,13.97
2023-04-08T06:57:20.757Z,13.99
2023-04-08T06:59:49.350Z,14.00
2023-04-08T07:02:19.284Z,14.01
2023-04-08T07:04:47.953Z,14.01
2023-04-08T07:07:16.593Z,14.00
2023-04-08T07:09:46.021Z,13.99
2023-04-08T07:12:14.718Z,13.99
2023-04-08T07:14:43.522Z,13.98
2023-04-08T07:17:12.491Z,13.93
2023-04-08T07:19:44.163Z,13.90
2023-04-08T07:22:12.786Z,13.92
2023-04-08T07:24:42.888Z,13.93
2023-04-08T07:27:11.839Z,13.92
2023-04-08T07:29:40.110Z,13.95
2023-04-08T07:32:08.931Z,13.98
2023-04-08T07:34:37.677Z,13.99
2023-04-08T07:37:07.503Z,14.01
2023-04-08T07:39:35.955Z,14.03
2023-04-08T07:42:04.497Z,14.06
2023-04-08T07:44:33.142Z,14.05
2023-04-08T07:47:01.772Z,14.08
2023-04-08T07:49:30.294Z,14.06
2023-04-08T07:51:58.686Z,14.05
2023-04-08T07:54:28.439Z,14.10
2023-04-08T07:56:57.081Z,14.12
2023-04-08T07:59:26.025Z,14.15
2023-04-08T08:01:54.530Z,14.17
2023-04-08T08:04:25.844Z,14.20
2023-04-08T08:06:54.388Z,14.24
2023-04-08T08:09:23.051Z,14.25
2023-04-08T08:11:52.996Z,14.27
2023-04-08T08:14:21.893Z,14.25
2023-04-08T08:16:50.804Z,14.18
2023-04-08T08:19:19.233Z,14.14
2023-04-08T08:21:47.723Z,14.13
2023-04-08T08:24:17.558Z,14.13
2023-04-08T08:26:47.232Z,14.13
2023-04-08T08:29:17.538Z,14.16
2023-04-08T08:31:48.513Z,14.19
2023-04-08T08:34:18.557Z,14.19
2023-04-08T08:36:47.474Z,14.19
2023-04-08T08:39:16.337Z,14.20
2023-04-08T08:41:44.762Z,14.20
2023-04-08T08:44:13.984Z,14.20
2023-04-08T08:46:46.021Z,14.24
2023-04-08T08:49:14.746Z,14.24
2023-04-08T08:51:43.294Z,14.22
2023-04-08T08:54:11.692Z,14.22
2023-04-08T08:56:40.671Z,14.23
2023-04-08T08:59:09.118Z,14.23
2023-04-08T09:01:41.322Z,14.26
2023-04-08T09:04:18.347Z,14.29
2023-04-08T09:06:48.828Z,14.32
2023-04-08T09:09:17.285Z,14.37
2023-04-08T09:11:49.070Z,14.41
2023-04-08T09:14:22.099Z,14.47
2023-04-08T09:16:51.766Z,14.50
2023-04-08T09:19:21.981Z,14.56
2023-04-08T09:22:09.812Z,14.59
2023-04-08T09:24:39.294Z,14.56
2023-04-08T09:27:07.824Z,14.53
2023-04-08T09:29:39.699Z,14.58
2023-04-08T09:32:08.540Z,14.50
2023-04-08T09:34:38.354Z,14.47
2023-04-08T09:37:07.278Z,14.42
2023-04-08T09:39:36.112Z,14.37
2023-04-08T09:42:11.301Z,14.37
2023-04-08T09:44:41.439Z,14.36
2023-04-08T09:47:20.098Z,14.37
2023-04-08T09:49:57.502Z,14.38
2023-04-08T09:52:36.114Z,14.34
2023-04-08T09:55:06.685Z,14.30
2023-04-08T09:57:43.567Z,14.30
2023-04-08T10:00:15.574Z,14.27
2023-04-08T10:02:56.442Z,14.25
2023-04-08T10:05:27.213Z,14.24
2023-04-08T10:07:58.058Z,14.25
2023-04-08T10:10:27.321Z,14.24
2023-04-08T10:12:56.303Z,14.29
2023-04-08T10:15:27.876Z,14.34
2023-04-08T10:17:58.144Z,14.34
2023-04-08T10:20:47.876Z,14.34
2023-04-08T10:23:18.548Z,14.37
2023-04-08T10:25:48.577Z,14.37
2023-04-08T10:28:27.288Z,14.37
2023-04-08T10:30:57.464Z,14.37
2023-04-08T10:33:34.624Z,14.41
2023-04-08T10:36:12.342Z,14.46
2023-04-08T10:38:42.313Z,14.51
2023-04-08T10:41:13.955Z,14.56
2023-04-08T10:43:42.517Z,14.60
2023-04-08T10:46:13.060Z,14.65
2023-04-08T10:48:41.414Z,14.70
2023-04-08T10:51:12.115Z,14.74
2023-04-08T10:53:41.001Z,14.76
2023-04-08T10:56:13.262Z,14.80
2023-04-08T10:58:50.662Z,14.83
2023-04-08T11:01:19.913Z,14.83
2023-04-08T11:03:48.661Z,14.83
2023-04-08T11:06:19.576Z,14.81
2023-04-08T11:08:48.224Z,14.80
2023-04-08T11:11:16.719Z,14.82
2023-04-08T11:13:53.185Z,14.87
2023-04-08T11:16:24.040Z,14.91
2023-04-08T11:18:52.980Z,14.95
2023-04-08T11:21:25.630Z,14.97
2023-04-08T11:23:54.618Z,15.00
2023-04-08T11:26:24.028Z,15.02
2023-04-08T11:28:52.581Z,15.03
2023-04-08T11:31:24.687Z,15.05
2023-04-08T11:33:56.270Z,15.05
2023-04-08T11:36:27.308Z,15.03
2023-04-08T11:38:56.526Z,15.02
2023-04-08T11:41:26.637Z,15.01
2023-04-08T11:43:57.129Z,15.02
2023-04-08T11:46:26.544Z,15.04
2023-04-08T11:49:07.975Z,15.07
2023-04-08T11:51:57.680Z,15.13
2023-04-08T11:54:29.988Z,15.17
2023-04-08T11:56:59.353Z,15.20
2023-04-08T11:59:29.548Z,15.25
2023-04-08T12:01:59.039Z,15.32
2023-04-08T12:04:27.933Z,15.34
2023-04-08T12:06:58.558Z,15.36
2023-04-08T12:09:27.514Z,15.39
2023-04-08T12:11:56.728Z,15.42
2023-04-08T12:14:27.694Z,15.46
2023-04-08T12:16:57.114Z,15.50
2023-04-08T12:19:27.067Z,15.48
2023-04-08T12:21:55.403Z,15.47
2023-04-08T12:24:25.149Z,15.47
2023-04-08T12:26:53.759Z,15.48
2023-04-08T12:29:22.171Z,15.49
2023-04-08T12:31:50.650Z,15.53
2023-04-08T12:34:20.609Z,15.55
2023-04-08T12:36:49.873Z,15.56
2023-04-08T12:39:19.115Z,15.58
2023-04-08T12:41:49.133Z,15.56
2023-04-08T12:44:17.898Z,15.54
2023-04-08T12:46:46.514Z,15.51
2023-04-08T12:49:14.986Z,15.53
2023-04-08T12:51:43.497Z,15.53
2023-04-08T12:54:12.507Z,15.52
2023-04-08T12:56:43.212Z,15.52
2023-04-08T12:59:13.129Z,15.52
2023-04-08T13:01:41.628Z,15.52
2023-04-08T13:04:10.199Z,15.54
2023-04-08T13:06:38.685Z,15.56
2023-04-08T13:09:07.196Z,15.86
2023-04-08T13:11:35.541Z,15.74
2023-04-08T13:14:04.141Z,15.73
2023-04-08T13:16:34.009Z,15.71
2023-04-08T13:19:02.724Z,15.77
2023-04-08T13:21:31.601Z,15.79
2023-04-08T13:24:00.144Z,15.91
2023-04-08T13:26:28.815Z,16.18
2023-04-08T13:28:58.402Z,16.10
2023-04-08T13:31:27.308Z,16.03
2023-04-08T13:33:58.331Z,16.01
2023-04-08T13:36:28.886Z,16.32
2023-04-08T13:38:57.669Z,16.17
2023-04-08T13:41:28.413Z,16.09
2023-04-08T13:43:57.586Z,16.06
2023-04-08T13:46:26.916Z,16.25
2023-04-08T13:48:57.095Z,16.14
2023-04-08T13:51:27.375Z,16.07
2023-04-08T13:53:56.116Z,16.05
2023-04-08T13:56:24.777Z,16.02
2023-04-08T13:58:57.134Z,16.02
2023-04-08T14:01:26.560Z,16.00
2023-04-08T14:03:56.901Z,15.97
2023-04-08T14:06:26.635Z,15.97
2023-04-08T14:08:54.988Z,15.97
2023-04-08T14:11:23.570Z,15.98
2023-04-08T14:13:52.058Z,16.01
2023-04-08T14:16:21.232Z,16.02
2023-04-08T14:18:49.857Z,16.03
2023-04-08T14:21:20.267Z,16.03
2023-04-08T14:23:48.788Z,16.03
2023-04-08T14:26:17.672Z,16.05
2023-04-08T14:28:47.527Z,16.09
2023-04-08T14:31:16.433Z,16.11
2023-04-08T14:33:44.947Z,16.14
2023-04-08T14:36:14.125Z,16.14
2023-04-08T14:38:44.328Z,16.14
2023-04-08T14:41:12.760Z,16.15
2023-04-08T14:43:41.263Z,16.17
2023-04-08T14:46:10.086Z,16.17
2023-04-08T14:48:39.111Z,16.18
2023-04-08T14:51:07.814Z,16.20
2023-04-08T14:53:36.469Z,16.20
2023-04-08T14:56:08.642Z,16.22
2023-04-08T14:58:37.102Z,16.24
2023-04-08T15:01:06.124Z,16.27
2023-04-08T15:03:34.626Z,16.26
2023-04-08T15:06:03.488Z,16.25
2023-04-08T15:08:31.886Z,16.24
2023-04-08T15:11:00.460Z,16.25
2023-04-08T15:13:30.334Z,16.26
2023-04-08T15:15:58.789Z,16.27
2023-04-08T15:18:27.490Z,16.26
2023-04-08T15:20:56.463Z,16.24
2023-04-08T15:23:25.003Z,16.23
2023-04-08T15:25:53.411Z,16.25
2023-04-08T15:28:22.022Z,16.27
2023-04-08T15:30:52.121Z,16.29
2023-04-08T15:33:21.157Z,16.30
2023-04-08T15:35:49.919Z,16.32
2023-04-08T15:38:18.992Z,16.34
2023-04-08T15:40:48.339Z,16.36
2023-04-08T15:43:16.939Z,16.40
2023-04-08T15:45:46.592Z,16.43
2023-04-08T15:48:16.387Z,16.45
2023-04-08T15:50:45.015Z,16.46
2023-04-08T15:53:13.972Z,16.48
2023-04-08T15:55:42.858Z,16.48
2023-04-08T15:58:11.268Z,16.46
2023-04-08T16:00:40.062Z,16.45
2023-04-08T16:03:11.798Z,16.46
2023-04-08T16:05:43.021Z,16.47
2023-04-08T16:08:12.078Z,16.48
2023-04-08T16:10:40.444Z,16.49
2023-04-08T16:13:09.059Z,16.54
2023-04-08T16:15:37.395Z,16.52
2023-04-08T16:18:06.618Z,16.53
2023-04-08T16:20:38.098Z,16.55
2023-04-08T16:23:07.929Z,16.57
2023-04-08T16:25:36.554Z,16.56
2023-04-08T16:28:05.025Z,16.56
2023-04-08T16:30:33.497Z,16.55
2023-04-08T16:33:02.311Z,16.53
2023-04-08T16:35:30.907Z,16.52
2023-04-08T16:37:59.579Z,16.52
2023-04-08T16:40:33.024Z,16.54
2023-04-08T16:43:01.862Z,16.53
2023-04-08T16:45:30.706Z,16.55
2023-04-08T16:48:00.184Z,16.56
2023-04-08T16:50:29.254Z,16.58
2023-04-08T16:52:57.864Z,16.59
2023-04-08T16:55:27.779Z,16.59
2023-04-08T16:57:56.489Z,16.60
2023-04-08T17:00:25.379Z,16.61
2023-04-08T17:02:56.551Z,16.63
2023-04-08T17:05:26.042Z,16.63
2023-04-08T17:07:56.736Z,16.61
2023-04-08T17:10:25.754Z,16.61
2023-04-08T17:12:55.451Z,16.61
2023-04-08T17:15:24.652Z,16.60
2023-04-08T17:17:53.176Z,16.61
2023-04-08T17:20:22.098Z,16.61
2023-04-08T17:22:51.056Z,16.61
2023-04-08T17:25:19.874Z,16.59
2023-04-08T17:27:48.570Z,16.57
2023-04-08T17:30:18.553Z,16.56
2023-04-08T17:32:47.018Z,16.55
2023-04-08T17:35:15.504Z,16.56
2023-04-08T17:37:44.460Z,16.53
2023-04-08T17:40:13.485Z,16.53
2023-04-08T17:42:42.135Z,16.52
2023-04-08T17:45:11.935Z,16.51
2023-04-08T17:47:43.463Z,16.53
2023-04-08T17:50:12.707Z,16.53
2023-04-08T17:52:44.437Z,16.53
2023-04-08T17:55:12.819Z,16.55
2023-04-08T17:57:41.297Z,16.54
2023-04-08T18:00:11.055Z,16.53
2023-04-08T18:02:42.525Z,16.49
2023-04-08T18:05:12.391Z,16.48
2023-04-08T18:07:40.930Z,16.46
2023-04-08T18:10:10.845Z,16.48
2023-04-08T18:12:39.544Z,16.47
2023-04-08T18:15:09.489Z,16.48
2023-04-08T18:17:38.101Z,16.47
2023-04-08T18:20:10.002Z,16.48
2023-04-08T18:22:38.748Z,16.48
2023-04-08T18:25:08.162Z,16.46
2023-04-08T18:27:36.764Z,16.46
2023-04-08T18:30:07.531Z,16.45
2023-04-08T18:32:36.571Z,16.45
2023-04-08T18:35:08.783Z,16.44
2023-04-08T18:37:37.544Z,16.44
2023-04-08T18:40:08.907Z,16.45
2023-04-08T18:42:37.487Z,16.46
2023-04-08T18:45:07.287Z,16.46
2023-04-08T18:47:36.420Z,16.45
2023-04-08T18:50:05.644Z,16.45
2023-04-08T18:52:35.932Z,16.44
2023-04-08T18:55:05.406Z,16.40
2023-04-08T18:57:34.774Z,16.40
2023-04-08T19:00:03.621Z,16.42
2023-04-08T19:02:33.166Z,16.42
2023-04-08T19:05:02.310Z,16.44
2023-04-08T19:07:30.868Z,16.45
2023-04-08T19:10:00.871Z,16.46
2023-04-08T19:12:29.417Z,16.45
2023-04-08T19:14:59.352Z,16.44
2023-04-08T19:17:27.870Z,16.42
2023-04-08T19:19:56.832Z,16.42
2023-04-08T19:22:26.070Z,16.41
2023-04-08T19:24:55.266Z,16.42
2023-04-08T19:27:25.466Z,16.42
2023-04-08T19:29:54.947Z,16.41
2023-04-08T19:32:23.770Z,16.40
2023-04-08T19:34:52.642Z,16.41
2023-04-08T19:37:21.374Z,16.40
2023-04-08T19:39:49.983Z,16.39
2023-04-08T19:42:19.419Z,16.40
2023-04-08T19:44:49.538Z,16.41
2023-04-08T19:47:18.524Z,16.41
2023-04-08T19:49:47.432Z,16.40
2023-04-08T19:52:16.290Z,16.38
2023-04-08T19:54:44.715Z,16.38
2023-04-08T19:57:13.069Z,16.39
2023-04-08T19:59:41.700Z,16.40
2023-04-08T20:02:11.691Z,16.41
2023-04-08T20:04:40.322Z,16.41
2023-04-08T20:07:09.073Z,16.40
2023-04-08T20:09:37.674Z,16.36
2023-04-08T20:12:06.383Z,16.35
2023-04-08T20:14:37.912Z,16.38
2023-04-08T20:17:06.628Z,16.34
2023-04-08T20:19:36.527Z,16.33
2023-04-08T20:22:04.974Z,16.33
2023-04-08T20:24:33.595Z,16.33
2023-04-08T20:27:02.461Z,16.33
2023-04-08T20:29:30.839Z,16.33
2023-04-08T20:31:59.830Z,16.33
2023-04-08T20:34:28.373Z,16.33
2023-04-08T20:36:58.292Z,16.32
2023-04-08T20:39:30.882Z,16.32
2023-04-08T20:41:59.781Z,16.32
2023-04-08T20:44:28.972Z,16.32
2023-04-08T20:46:58.058Z,16.30
2023-04-08T20:49:26.708Z,16.28
2023-04-08T20:51:55.176Z,16.27
2023-04-08T20:54:25.976Z,16.28
2023-04-08T20:56:54.359Z,16.25
2023-04-08T20:59:23.022Z,16.23
2023-04-08T21:01:51.824Z,16.20
2023-04-08T21:04:20.790Z,16.18
2023-04-08T21:06:50.221Z,16.15
2023-04-08T21:09:18.662Z,16.15
2023-04-08T21:11:48.565Z,16.14
2023-04-08T21:14:17.049Z,16.14
2023-04-08T21:16:46.006Z,16.14
2023-04-08T21:19:14.420Z,16.14
2023-04-08T21:21:42.803Z,16.14
2023-04-08T21:24:11.730Z,16.14
2023-04-08T21:26:40.306Z,16.14
2023-04-08T21:29:11.463Z,16.13
2023-04-08T21:31:41.254Z,16.11
2023-04-08T21:34:09.669Z,16.09
2023-04-08T21:36:38.549Z,16.07
2023-04-08T21:39:07.345Z,16.07
2023-04-08T21:41:36.028Z,16.05
2023-04-08T21:44:04.823Z,16.04
2023-04-08T21:46:34.653Z,16.04
2023-04-08T21:49:03.317Z,16.03
2023-04-08T21:51:32.309Z,16.03
2023-04-08T21:54:00.767Z,16.01
2023-04-08T21:56:29.227Z,15.98
2023-04-08T21:58:57.848Z,15.96
2023-04-08T22:01:26.677Z,15.97
2023-04-08T22:03:57.043Z,15.95
2023-04-08T22:06:32.319Z,15.93
2023-04-08T22:09:01.423Z,15.93
2023-04-08T22:11:30.007Z,15.90
2023-04-08T22:13:58.773Z,15.89
2023-04-08T22:16:27.645Z,15.87
2023-04-08T22:18:57.490Z,15.87
2023-04-08T22:21:26.391Z,15.84
2023-04-08T22:23:54.961Z,15.79
2023-04-08T22:26:23.823Z,15.77
2023-04-08T22:28:52.345Z,15.76
2023-04-08T22:31:21.502Z,15.71
2023-04-08T22:33:50.165Z,15.66
2023-04-08T22:36:20.678Z,15.66
2023-04-08T22:38:49.379Z,15.65
2023-04-08T22:41:19.230Z,15.65
2023-04-08T22:43:48.059Z,15.63
2023-04-08T22:46:18.314Z,15.63
2023-04-08T22:48:49.349Z,15.60
2023-04-08T22:51:19.774Z,15.59
2023-04-08T22:53:48.205Z,15.57
2023-04-08T22:56:16.622Z,15.57
2023-04-08T22:58:45.152Z,15.58
2023-04-08T23:01:18.012Z,15.57
2023-04-08T23:03:48.111Z,15.55
2023-04-08T23:06:17.659Z,15.56
2023-04-08T23:08:47.546Z,15.57
2023-04-08T23:11:16.048Z,15.56
2023-04-08T23:13:44.401Z,15.55
2023-04-08T23:16:12.798Z,15.55
2023-04-08T23:18:41.643Z,15.55
2023-04-08T23:21:10.225Z,15.53
2023-04-08T23:23:38.825Z,15.52
2023-04-08T23:26:08.631Z,15.51
2023-04-08T23:28:36.963Z,15.47
2023-04-08T23:31:06.446Z,15.44
2023-04-08T23:33:34.716Z,15.42
2023-04-08T23:36:08.219Z,15.41
2023-04-08T23:38:37.286Z,15.40
2023-04-08T23:41:06.194Z,15.40
2023-04-08T23:43:36.351Z,15.38
2023-04-08T23:46:04.834Z,15.37
2023-04-08T23:48:33.524Z,15.38
2023-04-08T23:51:02.143Z,15.36
2023-04-08T23:53:30.514Z,15.37
2023-04-08T23:56:06.824Z,15.37
2023-04-08T23:58:37.494Z,15.36
